Map

Track Data

SID SEASON NUMBER BASIN SUBBASIN NAME ISO_TIME NATURE LAT LON WMO_WIND WMO_PRES WMO_AGENCY TRACK_TYPE DIST2LAND LANDFALL IFLAG USA_AGENCY USA_ATCF_ID USA_LAT USA_LON USA_RECORD USA_STATUS USA_WIND USA_PRES USA_SSHS USA_R34_NE USA_R34_SE USA_R34_SW USA_R34_NW USA_R50_NE USA_R50_SE USA_R50_SW USA_R50_NW USA_R64_NE USA_R64_SE USA_R64_SW USA_R64_NW USA_POCI USA_ROCI USA_RMW USA_EYE TOKYO_LAT TOKYO_LON TOKYO_GRADE TOKYO_WIND TOKYO_PRES TOKYO_R50_DIR TOKYO_R50_LONG TOKYO_R50_SHORT TOKYO_R30_DIR TOKYO_R30_LONG TOKYO_R30_SHORT TOKYO_LAND CMA_LAT CMA_LON CMA_CAT CMA_WIND CMA_PRES HKO_LAT HKO_LON HKO_CAT HKO_WIND HKO_PRES NEWDELHI_LAT NEWDELHI_LON NEWDELHI_GRADE NEWDELHI_WIND NEWDELHI_PRES NEWDELHI_CI NEWDELHI_DP NEWDELHI_POCI REUNION_LAT REUNION_LON REUNION_TYPE REUNION_WIND REUNION_PRES REUNION_TNUM REUNION_CI REUNION_RMW REUNION_R34_NE REUNION_R34_SE REUNION_R34_SW REUNION_R34_NW REUNION_R50_NE REUNION_R50_SE REUNION_R50_SW REUNION_R50_NW REUNION_R64_NE REUNION_R64_SE REUNION_R64_SW REUNION_R64_NW BOM_LAT BOM_LON BOM_TYPE BOM_WIND BOM_PRES BOM_TNUM BOM_CI BOM_RMW BOM_R34_NE BOM_R34_SE BOM_R34_SW BOM_R34_NW BOM_R50_NE BOM_R50_SE BOM_R50_SW BOM_R50_NW BOM_R64_NE BOM_R64_SE BOM_R64_SW BOM_R64_NW BOM_ROCI BOM_POCI BOM_EYE BOM_POS_METHOD BOM_PRES_METHOD NADI_LAT NADI_LON NADI_CAT NADI_WIND NADI_PRES WELLINGTON_LAT WELLINGTON_LON WELLINGTON_WIND WELLINGTON_PRES DS824_LAT DS824_LON DS824_STAGE DS824_WIND DS824_PRES TD9636_LAT TD9636_LON TD9636_STAGE TD9636_WIND TD9636_PRES TD9635_LAT TD9635_LON TD9635_WIND TD9635_PRES TD9635_ROCI NEUMANN_LAT NEUMANN_LON NEUMANN_CLASS NEUMANN_WIND NEUMANN_PRES MLC_LAT MLC_LON MLC_CLASS MLC_WIND MLC_PRES USA_GUST BOM_GUST BOM_GUST_PER REUNION_GUST REUNION_GUST_PER USA_SEAHGT USA_SEARAD_NE USA_SEARAD_SE USA_SEARAD_SW USA_SEARAD_NW STORM_SPEED STORM_DIR
1949013N06140 1949 3 WP MM CARMEN 1949-01-13 00:00:00 TS 5.70000 139.900 main 839 832 __O___________ -1 5.70000 139.900 0 1006 6 285
1949013N06140 1949 3 WP MM CARMEN 1949-01-13 03:00:00 TS 5.78004 139.598 main 843 843 __P___________ -1 5.78004 139.598 0 1006 5 2
1949013N06140 1949 3 WP MM CARMEN 1949-01-13 06:00:00 TS 6.20000 139.900 main 894 894 O_O______O_O__ jtwc_wp WP011949 6.50000 140.500 25 -1 5.90000 139.300 0 1006 6.50000 140.500 TC 25 6.50000 140.500 25 1001 60 6 5
1949013N06140 1949 3 WP MM CARMEN 1949-01-13 09:00:00 TS 6.36102 139.641 main 905 900 P_P______P_P__ WP011949 6.54505 140.063 30 -1 6.08497 139.007 0 1006 6.54505 140.063 TC 30 6.54505 140.063 30 1001 90 6 300
1949013N06140 1949 3 WP MM CARMEN 1949-01-13 12:00:00 TS 6.51429 139.343 main 901 897 O_O______OOO__ jtwc_wp WP011949 6.60000 139.600 35 0 6.30000 138.700 0 1006 6.60000 139.600 TC 35 6.60000 139.600 2 35 6.60000 139.600 35 1001 120 8 292
1949013N06140 1949 3 WP MM CARMEN 1949-01-13 15:00:00 TS 6.63789 138.935 main 893 892 P_P______PPP__ WP011949 6.67749 139.100 37 0 6.49249 138.357 0 1006 6.67749 139.100 TC 37 6.69105 139.105 2 37 6.67749 139.100 37 1000 120 9 287
1949013N06140 1949 3 WP MM CARMEN 1949-01-13 18:00:00 TS 6.77981 138.476 main 899 892 O_O______OPO__ jtwc_wp WP011949 6.80000 138.600 40 0 6.70000 138.000 0 1006 6.80000 138.600 TC 40 6.80547 138.617 2 40 6.80000 138.600 40 1000 120 9 290
1949013N06140 1949 3 WP MM CARMEN 1949-01-13 21:00:00 TS 6.95490 138.039 main 903 899 P_P______PPP__ WP011949 6.95496 138.135 42 0 6.94249 137.643 0 1005 6.95496 138.135 TC 42 6.96714 138.146 2 42 6.95496 138.135 42 999 150 10 296
1949013N06140 1949 3 WP MM CARMEN 1949-01-14 00:00:00 TS 7.20000 137.620 main 912 912 O_O______OOO__ jtwc_wp WP011949 7.20000 137.700 45 0 7.20000 137.300 0 1005 7.20000 137.700 TC 45 7.20000 137.700 2 45 7.20000 137.700 45 998 180 10 306
1949013N06140 1949 3 WP MM CARMEN 1949-01-14 03:00:00 TS 7.54013 137.228 main 935 935 P_P______PPP__ WP011949 7.57747 137.285 47 0 7.44995 137.000 0 1005 7.57747 137.285 TC 47 7.51828 137.284 2 48 7.57747 137.285 47 997 210 10 314
1949013N06140 1949 3 WP MM CARMEN 1949-01-14 06:00:00 TS 7.91947 136.860 main 974 972 O_O______OPO__ jtwc_wp WP011949 8.00000 136.900 50 0 7.70000 136.700 0 1005 8.00000 136.900 TC 50 7.89733 136.898 2 52 8.00000 136.900 50 997 240 10 315
1949013N06140 1949 3 WP MM CARMEN 1949-01-14 09:00:00 TS 8.26802 136.500 main 1013 1012 P_P______PPP__ WP011949 8.36496 136.535 55 0 7.94249 136.357 0 1005 8.36496 136.535 TC 55 8.30271 136.537 2 56 8.36496 136.535 55 996 240 10 315
1949013N06140 1949 3 WP MM CARMEN 1949-01-14 12:00:00 TS 8.60000 136.160 main 1044 1031 O_O______OOO__ jtwc_wp WP011949 8.70000 136.200 60 0 8.20000 136.000 0 1005 8.70000 136.200 TC 60 8.70000 136.200 2 60 8.70000 136.200 60 996 240 9 314
1949013N06140 1949 3 WP MM CARMEN 1949-01-14 15:00:00 TS 8.90171 135.834 main 1022 994 P_P______PPP__ WP011949 8.99996 135.892 60 0 8.47751 135.635 0 1005 8.99996 135.892 TC 60 9.03117 135.858 2 60 8.99996 135.892 60 995 240 9 314
1949013N06140 1949 3 WP MM CARMEN 1949-01-14 18:00:00 TS 9.20999 135.528 main 994 967 O_O______OPO__ jtwc_wp WP011949 9.30000 135.600 60 0 8.80000 135.300 0 1005 9.30000 135.600 TC 60 9.34993 135.540 2 60 9.30000 135.600 60 994 240 9 317
1949013N06140 1949 3 WP MM CARMEN 1949-01-14 21:00:00 TS 9.54574 135.230 main 967 953 P_P______PPP__ WP011949 9.63499 135.292 60 0 9.15498 135.020 0 1005 9.63499 135.292 TC 60 9.66872 135.252 2 60 9.63499 135.292 60 993 270 9 322
1949013N06140 1949 3 WP MM CARMEN 1949-01-15 00:00:00 TS 9.92000 134.960 main 956 936 O_O______OOO__ jtwc_wp WP011949 10.0000 135.000 60 0 9.60000 134.800 1 29 1005 10.0000 135.000 TC 60 10.0000 135.000 2 60 10.0000 135.000 60 992 300 10 327
1949013N06140 1949 3 WP MM CARMEN 1949-01-15 03:00:00 TS 10.3537 134.703 main 938 924 P_P______PPP__ WP011949 10.4000 134.720 62 0 10.2000 134.613 1 33 1003 10.4000 134.720 TC 62 10.3687 134.745 2 61 10.4000 134.720 62 991 300 10 333
1949013N06140 1949 3 WP MM CARMEN 1949-01-15 06:00:00 TS 10.7900 134.506 main 926 918 O_O______OPO__ jtwc_wp WP011949 10.8000 134.500 65 1 10.8000 134.500 2 38 1002 10.8000 134.500 TC 65 10.7499 134.530 2 62 10.8000 134.500 65 991 300 9 339
1949013N06140 1949 3 WP MM CARMEN 1949-01-15 09:00:00 TS 11.1652 134.382 main 925 920 P_P______PPP__ WP011949 11.1500 134.355 65 1 11.2450 134.470 2 43 1001 11.1500 134.355 TC 65 11.1312 134.376 2 63 11.1500 134.355 65 990 300 8 348
1949013N06140 1949 3 WP MM CARMEN 1949-01-15 12:00:00 TS 11.5200 134.340 main 923 923 O_O______OOO__ jtwc_wp WP011949 11.5000 134.300 65 1 11.6000 134.500 3 48 1000 11.5000 134.300 TC 65 11.5000 134.300 3 65 11.5000 134.300 65 989 300 7 0
1949013N06140 1949 3 WP MM CARMEN 1949-01-15 15:00:00 TS 11.9078 134.358 main 943 943 P_P______PPP__ WP011949 11.9150 134.312 65 1 11.9225 134.542 3 53 999 11.9150 134.312 TC 65 11.8718 134.308 3 65 11.9150 134.312 65 988 300 8 8
1949013N06140 1949 3 WP MM CARMEN 1949-01-15 18:00:00 TS 12.2650 134.439 main 948 948 O_O______OPO__ jtwc_wp WP011949 12.3000 134.400 65 1 12.2000 134.600 3 58 998 12.3000 134.400 TC 65 12.2249 134.394 3 65 12.3000 134.400 65 988 300 7 16
1949013N06140 1949 3 WP MM CARMEN 1949-01-15 21:00:00 TS 12.5491 134.544 main 962 962 P_P______PPP__ WP011949 12.5800 134.520 65 1 12.4650 134.628 3 58 998 12.5800 134.520 TC 65 12.5406 134.533 3 65 12.5800 134.520 65 987 300 6 26
1949013N06140 1949 3 WP MM CARMEN 1949-01-16 00:00:00 TS 12.7800 134.700 main 989 989 O_O______OOO__ jtwc_wp WP011949 12.8000 134.700 65 1 12.7000 134.700 3 58 998 12.8000 134.700 TC 65 12.8000 134.700 4 65 12.8000 134.700 65 986 300 6 39
1949013N06140 1949 3 WP MM CARMEN 1949-01-16 03:00:00 TS 13.0046 134.924 main 1015 1015 P_P______PPP__ WP011949 13.0301 134.957 65 1 12.9301 134.892 3 63 997 13.0301 134.957 TC 65 13.0028 134.853 4 65 13.0301 134.957 65 985 270 6 48
1949013N06140 1949 3 WP MM CARMEN 1949-01-16 06:00:00 TS 13.1695 135.145 main 1041 1041 O_O______OPO__ jtwc_wp WP011949 13.2000 135.200 65 1 13.1000 135.100 4 68 996 13.2000 135.200 TC 65 13.1475 135.027 4 65 13.2000 135.200 65 985 240 4 54
1949013N06140 1949 3 WP MM CARMEN 1949-01-16 09:00:00 TS 13.2481 135.269 main 1062 1062 P_P______PPP__ WP011949 13.2724 135.308 65 1 13.1800 135.208 4 68 996 13.2724 135.308 TC 65 13.2434 135.213 4 65 13.2724 135.308 65 983 270 3 64
1949013N06140 1949 3 WP MM CARMEN 1949-01-16 12:00:00 TS 13.2800 135.380 main 1075 1075 O_O______OOO__ jtwc_wp WP011949 13.3000 135.400 65 1 13.2000 135.300 4 68 996 13.3000 135.400 TC 65 13.3000 135.400 4 65 13.3000 135.400 65 982 300 3 74
1949013N06140 1949 3 WP MM CARMEN 1949-01-16 15:00:00 TS 13.3341 135.566 main 1096 1096 P_P______PPP__ WP011949 13.3650 135.592 65 1 13.2150 135.443 4 68 996 13.3650 135.592 TC 65 13.3604 135.612 4 65 13.3650 135.592 65 980 300 4 78
1949013N06140 1949 3 WP MM CARMEN 1949-01-16 18:00:00 TS 13.3565 135.764 main 1120 1120 O_O______OPO__ jtwc_wp WP011949 13.4000 135.800 65 1 13.2000 135.600 4 68 996 13.4000 135.800 TC 65 13.3826 135.818 4 65 13.4000 135.800 65 979 300 4 88
1949013N06140 1949 3 WP MM CARMEN 1949-01-16 21:00:00 TS 13.3442 135.933 main 1128 1128 P_P______PPP__ WP011949 13.3950 135.973 65 1 13.1725 135.757 4 68 994 13.3950 135.973 TC 65 13.3635 135.990 4 65 13.3950 135.973 65 977 300 3 109
1949013N06140 1949 3 WP MM CARMEN 1949-01-17 00:00:00 TS 13.2600 136.060 main 1149 1145 O_O______OOO__ jtwc_wp WP011949 13.3000 136.100 65 1 13.1000 135.900 4 68 993 13.3000 136.100 TC 65 13.3000 136.100 4 65 13.3000 136.100 65 976 300 4 143
1949013N06140 1949 3 WP MM CARMEN 1949-01-17 03:00:00 TS 13.0568 136.151 main 1155 1151 P_P______PPP__ WP011949 13.0500 136.195 65 1 12.9575 136.038 4 68 993 13.0500 136.195 TC 65 13.1768 136.131 4 65 13.0500 136.195 65 975 270 4 167
1949013N06140 1949 3 WP MM CARMEN 1949-01-17 06:00:00 TS 12.8430 136.159 main 1150 1137 O_O______OPO__ jtwc_wp WP011949 12.8000 136.200 65 1 12.8000 136.100 4 68 993 12.8000 136.200 TC 65 13.0149 136.097 4 65 12.8000 136.200 65 974 240 3 195
1949013N06140 1949 3 WP MM CARMEN 1949-01-17 09:00:00 TS 12.7396 136.059 main 1137 1116 P_P______PPP__ WP011949 12.7200 136.080 65 1 12.6925 136.037 4 68 993 12.7200 136.080 TC 65 12.8456 136.015 4 65 12.7200 136.080 65 973 210 3 237
1949013N06140 1949 3 WP MM CARMEN 1949-01-17 12:00:00 TS 12.6800 135.900 main 1116 1103 O_O______OOO__ jtwc_wp WP011949 12.7000 135.900 65 1 12.6000 135.900 4 68 993 12.7000 135.900 TC 65 12.7000 135.900 4 65 12.7000 135.900 65 972 180 3 246
1949013N06140 1949 3 WP MM CARMEN 1949-01-17 15:00:00 TS 12.6143 135.766 main 1103 1082 P_P______PPP__ WP011949 12.6500 135.750 65 1 12.4925 135.765 4 77 991 12.6500 135.750 TC 65 12.6292 135.815 4 67 12.6500 135.750 65 971 210 3 246
1949013N06140 1949 3 WP MM CARMEN 1949-01-17 18:00:00 TS 12.5569 135.620 main 1082 1069 O_O______OPO__ jtwc_wp WP011949 12.6000 135.600 65 1 12.4000 135.600 5 87 990 12.6000 135.600 TC 65 12.5847 135.698 4 70 12.6000 135.600 65 971 240 3 249
1949013N06140 1949 3 WP MM CARMEN 1949-01-17 21:00:00 TS 12.5050 135.480 main 1069 1048 P_P______PPP__ WP011949 12.5499 135.480 70 1 12.3274 135.430 5 87 990 12.5499 135.480 TC 70 12.5479 135.531 4 72 12.5499 135.480 70 970 240 3 254
1949013N06140 1949 3 WP MM CARMEN 1949-01-18 00:00:00 TS 12.4600 135.280 main 1048 1014 O_O______OOO__ jtwc_wp WP011949 12.5000 135.300 75 1 12.3000 135.200 5 87 990 12.5000 135.300 TC 75 12.5000 135.300 4 75 12.5000 135.300 75 970 240 5 262
1949013N06140 1949 3 WP MM CARMEN 1949-01-18 03:00:00 TS 12.4312 134.968 main 1014 971 P_P______PPP__ WP011949 12.4650 134.988 80 1 12.3425 134.873 5 87 990 12.4650 134.988 TC 80 12.4184 135.006 4 77 12.4650 134.988 80 970 270 7 264
1949013N06140 1949 3 WP MM CARMEN 1949-01-18 06:00:00 TS 12.3845 134.590 main 971 926 O_O______OPO__ jtwc_wp WP011949 12.4000 134.600 85 2 12.4000 134.500 5 87 990 12.4000 134.600 TC 85 12.3224 134.647 4 80 12.4000 134.600 85 970 300 8 258
1949013N06140 1949 3 WP MM CARMEN 1949-01-18 09:00:00 TS 12.2805 134.212 main 926 882 P_P______PPP__ WP011949 12.2574 134.215 85 2 12.4149 134.173 5 87 990 12.2574 134.215 TC 85 12.2152 134.240 4 82 12.2574 134.215 85 970 270 8 254
1949013N06140 1949 3 WP MM CARMEN 1949-01-18 12:00:00 TS 12.1600 133.800 main 882 837 O_O______OOO__ jtwc_wp WP011949 12.1000 133.800 85 2 12.4000 133.800 5 87 990 12.1000 133.800 TC 85 12.1000 133.800 4 85 12.1000 133.800 85 970 240 9 256
1949013N06140 1949 3 WP MM CARMEN 1949-01-18 15:00:00 TS 12.0711 133.354 main 837 782 P_P______PPP__ WP011949 11.9999 133.365 85 2 12.3575 133.322 5 77 992 11.9999 133.365 TC 85 11.9985 133.350 4 82 11.9999 133.365 85 970 270 9 259
1949013N06140 1949 3 WP MM CARMEN 1949-01-18 18:00:00 TS 11.9775 132.875 main 782 726 O_O______OPO__ jtwc_wp WP011949 11.9000 132.900 85 2 12.3000 132.800 4 68 995 11.9000 132.900 TC 85 11.8875 132.873 4 80 11.9000 132.900 85 971 300 10 257
1949013N06140 1949 3 WP MM CARMEN 1949-01-18 21:00:00 TS 11.8560 132.375 main 726 670 P_P______PPP__ WP011949 11.7575 132.400 80 1 12.2499 132.293 4 63 995 11.7575 132.400 TC 80 11.7578 132.384 4 77 11.7575 132.400 80 972 270 10 255
1949013N06140 1949 3 WP MM CARMEN 1949-01-19 00:00:00 TS 11.7200 131.880 main 670 614 O_O______OOO__ jtwc_wp WP011949 11.6000 131.900 75 1 12.2000 131.800 3 58 995 11.6000 131.900 TC 75 11.6000 131.900 4 75 11.6000 131.900 75 974 240 10 255
1949013N06140 1949 3 WP MM CARMEN 1949-01-19 03:00:00 TS 11.5988 131.425 main 614 570 P_P______PPP__ WP011949 11.4724 131.443 72 1 12.1574 131.350 3 58 995 11.4724 131.443 TC 72 11.4197 131.447 4 71 11.4724 131.443 72 976 210 9 252
1949013N06140 1949 3 WP MM CARMEN 1949-01-19 06:00:00 TS 11.4419 130.980 main 569 524 O_O______OPO__ jtwc_wp WP011949 11.3000 131.000 70 1 12.1000 130.900 3 58 995 11.3000 131.000 TC 70 11.2096 131.000 4 67 11.3000 131.000 70 979 180 10 246
1949013N06140 1949 3 WP MM CARMEN 1949-01-19 09:00:00 TS 11.2089 130.528 main 513 469 P_P______PPP__ WP011949 11.0224 130.565 65 1 12.0075 130.392 3 48 997 11.0224 130.565 TC 65 10.9697 130.553 4 63 11.0224 130.565 65 982 180 10 241
1949013N06140 1949 3 WP MM CARMEN 1949-01-19 12:00:00 TS 10.9400 130.060 main 467 408 O_O______OOO__ jtwc_wp WP011949 10.7000 130.100 60 0 11.9000 129.900 2 38 1000 10.7000 130.100 TC 60 10.7000 130.100 2 60 10.7000 130.100 60 986 180 11 241
1949013N06140 1949 3 WP MM CARMEN 1949-01-19 15:00:00 TS 10.6833 129.551 main 408 349 P_P______PPP__ WP011949 10.4076 129.543 55 0 11.7923 129.493 2 38 1000 10.4076 129.543 TC 55 10.4016 129.635 2 56 10.4076 129.543 55 989 150 11 244
1949013N06140 1949 3 WP MM CARMEN 1949-01-19 18:00:00 TS 10.4523 129.049 main 339 286 O_O______OPO__ jtwc_wp WP011949 10.1000 129.000 50 0 11.7000 129.100 2 38 1000 10.1000 129.000 TC 50 10.0807 129.162 2 52 10.1000 129.000 50 993 120 11 242
1949013N06140 1949 3 WP MM CARMEN 1949-01-19 21:00:00 TS 10.1805 128.607 main 286 237 P_P______PPP__ WP011949 9.65987 128.577 47 0 11.6500 128.650 2 33 1001 9.65987 128.577 TC 47 9.74432 128.682 2 48 9.75998 128.565 47 996 120 9 243
1949013N06140 1949 3 WP MM CARMEN 1949-01-20 00:00:00 TS 10.0286 128.200 main 237 208 O_O______OOO__ jtwc_wp WP011949 9.40000 128.200 45 0 11.6000 128.200 1 29 1002 9.40000 128.200 TC 45 9.40000 128.200 2 45 9.40000 128.200 45 999 120 8 273
1949013N06140 1949 3 WP MM CARMEN 1949-01-20 03:00:00 TS 10.2148 127.827 main 208 183 P_P______P____ WP011949 9.57227 127.845 42 0 11.4999 127.792 1 29 1003 9.57227 127.845 TC 42 2 9 299
1949013N06140 1949 3 WP MM CARMEN 1949-01-20 06:00:00 TS 10.4667 127.400 main 183 122 O_O______O____ jtwc_wp WP011949 10.0000 127.400 40 0 11.4000 127.400 1 29 1004 10.0000 127.400 TC 40 2 12 303
1949013N06140 1949 3 WP MM CARMEN 1949-01-20 09:00:00 TS 10.8609 126.823 main 109 55 P_P______P____ WP011949 10.6202 126.731 35 0 11.3424 127.008 1 1005 10.6202 126.731 TC 35 2 13 300
1949013N06140 1949 3 WP MM CARMEN 1949-01-20 12:00:00 TS 11.1200 126.240 main 45 0 O_O______O____ jtwc_wp WP011949 11.0000 126.000 30 -1 11.3000 126.600 0 1006 11.0000 126.000 TC 30 11 276
1949013N06140 1949 3 WP MM CARMEN 1949-01-20 15:00:00 TS 10.9725 125.757 main 0 0 P_P______P____ WP011949 10.7100 125.364 27 -1 11.2350 126.150 0 1006 10.7100 125.364 TC 27 9 249
1949013N06140 1949 3 WP MM CARMEN 1949-01-20 18:00:00 TS 10.8000 125.400 main 31 0 O_O______O____ jtwc_wp WP011949 10.0000 124.800 25 -1 11.2000 125.700 0 1006 10.0000 124.800 TC 25 5 299
1949013N06140 1949 3 WP MM CARMEN 1949-01-20 21:00:00 TS 11.2350 125.278 main 0 0 __P___________ WP011949 -1 11.2350 125.278 0 1007 TC 7 315
1949013N06140 1949 3 WP MM CARMEN 1949-01-21 00:00:00 TS 11.3000 124.900 main 0 0 __O___________ -1 11.3000 124.900 0 1008 7 279
1949013N06140 1949 3 WP MM CARMEN 1949-01-21 03:00:00 TS 11.3424 124.577 main 0 0 __P___________ -1 11.3424 124.577 0 1008 6 280
1949013N06140 1949 3 WP MM CARMEN 1949-01-21 06:00:00 TS 11.4000 124.300 main 10 10 __O___________ -1 11.4000 124.300 0 1008 5 287
1949013N06140 1949 3 WP MM CARMEN 1949-01-21 09:00:00 TS 11.5000 124.043 main 24 24 __P___________ -1 11.5000 124.043 0 1008 5 292
1949013N06140 1949 3 WP MM CARMEN 1949-01-21 12:00:00 TS 11.6000 123.800 main 31 31 __O___________ -1 11.6000 123.800 0 1008 5 288
1949013N06140 1949 3 WP MM CARMEN 1949-01-21 15:00:00 TS 11.6500 123.557 main 35 31 __P___________ -1 11.6500 123.557 0 1008 5 282
1949013N06140 1949 3 WP MM CARMEN 1949-01-21 18:00:00 TS 11.7000 123.300 main 31 24 __O___________ -1 11.7000 123.300 0 1008 6 285
1949013N06140 1949 3 WP MM CARMEN 1949-01-21 21:00:00 TS 11.8000 123.000 main 35 33 __P___________ -1 11.8000 123.000 0 1008 6 289
1949013N06140 1949 3 WP MM CARMEN 1949-01-22 00:00:00 TS 11.9000 122.700 main 39 24 __O___________ -1 11.9000 122.700 0 1008 5 284
1949013N06140 1949 3 WP MM CARMEN 1949-01-22 03:00:00 TS 11.9273 122.480 main 24 22 __P___________ -1 11.9273 122.480 0 1008 5 282
1949013N06140 1949 3 WP MM CARMEN 1949-01-22 06:00:00 TS 12.0000 122.200 main 22 22 __O___________ -1 12.0000 122.200 0 1008 8 291
1949013N06140 1949 3 WP MM CARMEN 1949-01-22 09:00:00 TS 12.1975 121.752 main 44 0 __P___________ -1 12.1975 121.752 0 1008 11 297
1949013N06140 1949 3 WP MM CARMEN 1949-01-22 12:00:00 TS 12.5000 121.200 main 0 0 __O___________ -1 12.5000 121.200 0 1008 14 301
1949013N06140 1949 3 WP MM CARMEN 1949-01-22 15:00:00 TS 12.9002 120.570 main 21 21 __P___________ -1 12.9002 120.570 0 1008 14 304
1949013N06140 1949 3 WP MM CARMEN 1949-01-22 18:00:00 TS 13.3000 120.000 main 34 34 __O___________ -1 13.3000 120.000 0 1008 11 306
1949013N06140 1949 3 WP MM CARMEN 1949-01-22 21:00:00 TS 13.5723 119.632 main 78 78 __P___________ -1 13.5723 119.632 0 1008 8 311
1949013N06140 1949 3 WP MM CARMEN 1949-01-23 00:00:00 TS 13.8000 119.400 main 107 107 __O___________ -1 13.8000 119.400 0 1008 6 322
1949013N06140 1949 3 WP MM CARMEN 1949-01-23 03:00:00 TS 14.0574 119.235 main 124 117 __P___________ -1 14.0574 119.235 0 1008 6 330
1949013N06140 1949 3 WP MM CARMEN 1949-01-23 06:00:00 TS 14.3000 119.100 main 121 121 __O___________ -1 14.3000 119.100 0 1008 6 324
1949013N06140 1949 3 WP MM CARMEN 1949-01-23 09:00:00 TS 14.5000 118.900 main 133 133 __P___________ -1 14.5000 118.900 0 1008 6 316
1949013N06140 1949 3 WP MM CARMEN 1949-01-23 12:00:00 TS 14.7000 118.700 main 150 145 __O___________ -1 14.7000 118.700 0 1008 6 321
1949013N06140 1949 3 WP MM CARMEN 1949-01-23 15:00:00 TS 14.9425 118.535 main 160 153 __P___________ -1 14.9425 118.535 0 1008 6 330
1949013N06140 1949 3 WP MM CARMEN 1949-01-23 18:00:00 TS 15.2000 118.400 main 162 159 __O___________ -1 15.2000 118.400 0 1008 6 336
1949013N06140 1949 3 WP MM CARMEN 1949-01-23 21:00:00 TS 15.4575 118.300 main 159 156 __P___________ -1 15.4575 118.300 0 1008 5 339
1949013N06140 1949 3 WP MM CARMEN 1949-01-24 00:00:00 TS 15.7000 118.200 main 163 162 __O___________ -1 15.7000 118.200 0 1008 5 331
1949013N06140 1949 3 WP MM CARMEN 1949-01-24 03:00:00 TS 15.9000 118.050 main 171 171 __P___________ -1 15.9000 118.050 0 1008 5 324
1949013N06140 1949 3 WP MM CARMEN 1949-01-24 06:00:00 TS 16.1000 117.900 main 192 192 __O___________ -1 16.1000 117.900 0 1008 5 331
1949013N06140 1949 3 WP MM CARMEN 1949-01-24 09:00:00 TS 16.3425 117.800 main 205 205 __P___________ -1 16.3425 117.800 0 1008 5 339
1949013N06140 1949 3 WP MM CARMEN 1949-01-24 12:00:00 TS 16.6000 117.700 main 223 223 __O___________ -1 16.6000 117.700 0 1008 6 335
1949013N06140 1949 3 WP MM CARMEN 1949-01-24 15:00:00 TS 16.8575 117.543 main 254 254 __P___________ -1 16.8575 117.543 0 1009 6 330
1949013N06140 1949 3 WP MM CARMEN 1949-01-24 18:00:00 TS 17.1000 117.400 main 270 270 __O___________ -1 17.1000 117.400 0 1010 5 335
1949013N06140 1949 3 WP MM CARMEN 1949-01-24 21:00:00 TS 17.3100 117.327 main 288 288 __P___________ -1 17.3100 117.327 0 1011 4 347
1949013N06140 1949 3 WP MM CARMEN 1949-01-25 00:00:00 TS 17.5000 117.300 main 298 __O___________ -1 17.5000 117.300 0 1012 4 0

Digital Typhoon Data and Search

About IBTrACS Database

This database is a web-friendly format of International Best Track Archive for Climate Stewardship (IBTrACS), a global best track data archive curated by NOAA dating back to 1842.

Updated: 2021-12-06